Time;durP1;ratioP1;P1;durP2;ratioP2;P2;SDS_P1;SDS_P2;PMS_P1;PMS_P2;Temp;Humidity;BMP_temperature;BMP_pressure;BME280_temperature;BME280_humidity;BME280_pressure;Samples;Min_cycle;Max_cycle;Signal;HPM_P1;HPM_P2
2023/07/01 00:02:12;;;;;;;5.17;4.53;;;;;;;16.02;100.00;100865.75;5057029;28;20578;-73
2023/07/01 00:04:38;;;;;;;7.07;5.53;;;;;;;16.03;100.00;100864.88;5053774;28;20200;-75
2023/07/01 00:07:04;;;;;;;6.57;4.90;;;;;;;15.90;100.00;100857.16;5048030;28;20225;-74
2023/07/01 00:09:30;;;;;;;7.17;5.07;;;;;;;15.93;100.00;100854.59;5052621;28;20198;-74
2023/07/01 00:11:55;;;;;;;6.20;4.70;;;;;;;16.00;100.00;100856.28;5054587;28;20213;-74
2023/07/01 00:14:21;;;;;;;7.17;5.40;;;;;;;16.00;100.00;100853.69;5054075;28;20194;-74
2023/07/01 00:16:46;;;;;;;6.07;5.40;;;;;;;15.95;100.00;100856.31;5058469;28;20247;-74
2023/07/01 00:19:12;;;;;;;5.50;5.00;;;;;;;15.96;100.00;100850.28;5050180;28;20202;-74
2023/07/01 00:21:37;;;;;;;6.00;5.00;;;;;;;16.01;100.00;100869.19;5053965;28;20630;-74
2023/07/01 00:24:03;;;;;;;7.23;4.40;;;;;;;15.97;100.00;100859.72;5054912;28;20205;-74
2023/07/01 00:26:28;;;;;;;5.00;4.50;;;;;;;15.99;100.00;100851.97;5038453;28;20229;-75
2023/07/01 00:28:54;;;;;;;5.03;4.53;;;;;;;16.03;100.00;100848.53;5054416;28;20729;-75
2023/07/01 00:31:19;;;;;;;5.13;4.20;;;;;;;16.03;100.00;100853.69;5055682;28;20197;-75
2023/07/01 00:33:45;;;;;;;5.20;4.23;;;;;;;16.01;100.00;100845.94;5066738;28;20283;-75
2023/07/01 00:36:10;;;;;;;7.00;4.30;;;;;;;16.01;100.00;100845.94;5054640;28;20292;-75
2023/07/01 00:38:36;;;;;;;9.03;4.50;;;;;;;16.04;100.00;100829.59;5073664;28;20194;-74
2023/07/01 00:41:01;;;;;;;5.13;4.23;;;;;;;16.04;100.00;100832.16;5056101;28;20763;-75
2023/07/01 00:43:27;;;;;;;5.87;4.53;;;;;;;16.04;100.00;100825.28;5069075;28;20220;-74
2023/07/01 00:45:53;;;;;;;4.50;3.80;;;;;;;16.07;100.00;100822.66;5058514;28;20196;-74
2023/07/01 00:48:24;;;;;;;5.87;3.97;;;;;;;16.08;100.00;100820.97;5037746;28;20213;-74
2023/07/01 00:50:50;;;;;;;4.53;4.13;;;;;;;16.07;100.00;100824.41;5053506;28;20184;-74
2023/07/01 00:53:17;;;;;;;5.80;4.57;;;;;;;16.06;100.00;100812.34;5055678;28;20201;-76
2023/07/01 00:55:42;;;;;;;6.13;4.83;;;;;;;16.05;100.00;100818.38;5055742;28;20192;-73
2023/07/01 00:58:08;;;;;;;5.93;4.60;;;;;;;16.05;100.00;100816.66;5055650;28;20218;-76
2023/07/01 01:00:34;;;;;;;7.10;4.80;;;;;;;16.11;100.00;100802.88;5058197;28;20209;-76
2023/07/01 01:03:14;;;;;;;5.47;4.97;;;;;;;16.10;100.00;100806.31;5066339;28;20200;-74
2023/07/01 01:05:47;;;;;;;6.13;4.73;;;;;;;16.10;100.00;100801.13;5057930;28;20219;-74
2023/07/01 01:08:21;;;;;;;5.57;4.70;;;;;;;16.09;100.00;100795.13;5056811;28;20936;-74
2023/07/01 01:10:47;;;;;;;6.20;4.73;;;;;;;16.04;100.00;100788.25;5054399;28;20230;-74
2023/07/01 01:13:16;;;;;;;6.27;4.90;;;;;;;16.04;100.00;100791.69;5054518;28;20213;-73
2023/07/01 01:15:42;;;;;;;8.17;4.60;;;;;;;16.00;100.00;100787.41;5058234;28;20191;-74
2023/07/01 01:18:10;;;;;;;6.30;4.60;;;;;;;16.00;100.00;100782.25;5068661;28;20722;-74
2023/07/01 01:20:38;;;;;;;5.83;4.43;;;;;;;16.04;100.00;100778.78;5055218;28;20267;-73
2023/07/01 01:23:13;;;;;;;4.87;4.27;;;;;;;16.06;100.00;100778.75;5052126;28;20208;-74
2023/07/01 01:25:52;;;;;;;6.17;4.50;;;;;;;16.03;100.00;100773.63;5058363;28;20208;-74
2023/07/01 01:28:18;;;;;;;5.13;4.47;;;;;;;16.00;100.00;100769.31;5063329;28;20216;-74
2023/07/01 01:30:43;;;;;;;4.93;4.37;;;;;;;16.02;100.00;100759.84;5038311;28;20186;-74
2023/07/01 01:33:09;;;;;;;6.47;4.93;;;;;;;15.95;100.00;100762.44;5053562;28;20647;-76
2023/07/01 01:35:34;;;;;;;8.57;4.77;;;;;;;15.96;100.00;100759.88;5040579;28;20185;-74
2023/07/01 01:38:09;;;;;;;5.70;4.60;;;;;;;15.98;100.00;100754.69;5054430;28;20328;-74
2023/07/01 01:40:42;;;;;;;5.37;4.60;;;;;;;15.96;100.00;100741.78;5054152;28;20220;-74
2023/07/01 01:43:19;;;;;;;5.53;4.83;;;;;;;15.91;100.00;100746.13;5047323;28;20213;-74
2023/07/01 01:45:46;;;;;;;6.27;4.43;;;;;;;15.98;100.00;100742.63;5053710;28;20868;-76
2023/07/01 01:48:13;;;;;;;6.60;4.67;;;;;;;16.03;100.00;100732.28;5066697;28;20217;-74
2023/07/01 01:50:40;;;;;;;6.07;4.90;;;;;;;16.02;100.00;100735.75;5049399;28;20185;-76
2023/07/01 01:53:06;;;;;;;5.43;4.47;;;;;;;16.01;100.00;100723.66;5056610;28;20697;-75
2023/07/01 01:55:32;;;;;;;5.30;4.00;;;;;;;16.02;100.00;100731.41;5057156;28;20197;-75
2023/07/01 01:58:01;;;;;;;7.20;4.17;;;;;;;15.99;100.00;100730.56;5054026;28;20271;-75
2023/07/01 02:00:27;;;;;;;5.23;3.77;;;;;;;15.98;100.00;100724.53;5063347;28;20710;-75
2023/07/01 02:02:52;;;;;;;5.90;4.30;;;;;;;16.01;100.00;100715.91;5055636;28;20192;-75
2023/07/01 02:05:18;;;;;;;5.30;4.47;;;;;;;16.00;100.00;100715.06;5050101;28;20232;-76
2023/07/01 02:07:43;;;;;;;8.73;4.60;;;;;;;16.01;100.00;100710.75;5054484;28;20304;-75
2023/07/01 02:10:09;;;;;;;5.77;4.33;;;;;;;16.00;100.00;100704.75;5055733;28;20239;-75
2023/07/01 02:12:35;;;;;;;5.13;4.13;;;;;;;16.00;100.00;100706.47;5057136;28;20209;-75
2023/07/01 02:15:00;;;;;;;6.53;3.70;;;;;;;16.03;100.00;100702.13;5054448;28;20920;-75
2023/07/01 02:17:26;;;;;;;6.10;3.70;;;;;;;15.99;100.00;100697.88;5038890;28;20219;-75
2023/07/01 02:19:52;;;;;;;4.70;3.93;;;;;;;16.06;100.00;100698.66;5058109;28;20284;-75
2023/07/01 02:22:17;;;;;;;7.67;3.50;;;;;;;16.06;100.00;100691.78;5051490;28;20293;-75
2023/07/01 02:24:43;;;;;;;3.93;3.50;;;;;;;16.09;100.00;100696.09;5057537;28;20273;-75
2023/07/01 02:27:08;;;;;;;5.97;3.53;;;;;;;16.09;100.00;100686.63;5056307;28;20257;-75
2023/07/01 02:29:34;;;;;;;3.97;3.57;;;;;;;16.10;100.00;100683.16;5054157;28;20197;-76
2023/07/01 02:32:00;;;;;;;4.80;3.27;;;;;;;16.11;100.00;100686.63;5055185;28;20193;-76
2023/07/01 02:34:27;;;;;;;4.67;3.73;;;;;;;16.11;100.00;100674.53;5055503;28;20199;-76
2023/07/01 02:36:53;;;;;;;4.80;3.70;;;;;;;16.10;100.00;100672.81;5062030;28;20693;-76
2023/07/01 02:39:19;;;;;;;4.27;3.50;;;;;;;16.08;100.00;100665.94;5056512;28;20190;-75
2023/07/01 02:41:44;;;;;;;7.80;3.50;;;;;;;16.07;100.00;100659.91;5059729;28;20698;-75
2023/07/01 02:44:11;;;;;;;6.17;3.50;;;;;;;16.05;100.00;100660.78;5053515;28;20237;-75
2023/07/01 02:46:37;;;;;;;4.93;3.60;;;;;;;16.06;100.00;100662.50;5057719;28;20217;-75
2023/07/01 02:49:03;;;;;;;5.70;2.93;;;;;;;16.08;100.00;100661.66;5055874;28;20197;-75
2023/07/01 02:51:28;;;;;;;4.23;3.53;;;;;;;16.10;100.00;100657.31;5034612;28;20200;-75
2023/07/01 02:53:54;;;;;;;5.70;3.70;;;;;;;16.06;100.00;100663.38;5057122;28;20890;-75
2023/07/01 02:56:20;;;;;;;3.90;3.20;;;;;;;16.07;100.00;100654.75;5039149;28;20255;-75
2023/07/01 02:58:45;;;;;;;5.80;3.63;;;;;;;16.03;100.00;100647.03;5059521;28;20192;-76
2023/07/01 03:01:12;;;;;;;5.40;3.17;;;;;;;16.09;100.00;100645.28;5054797;28;20291;-75
2023/07/01 03:03:38;;;;;;;5.00;3.37;;;;;;;16.09;100.00;100649.56;5052953;28;20197;-75
2023/07/01 03:06:03;;;;;;;5.17;3.07;;;;;;;16.02;100.00;100648.75;5053985;28;20189;-75
2023/07/01 03:08:28;;;;;;;3.67;2.97;;;;;;;16.06;100.00;100644.41;5052056;28;20737;-75
2023/07/01 03:10:54;;;;;;;4.83;2.77;;;;;;;16.07;100.00;100641.84;5053813;28;20553;-75
2023/07/01 03:13:19;;;;;;;3.07;2.87;;;;;;;16.07;100.00;100635.81;5051523;28;20192;-75
2023/07/01 03:15:45;;;;;;;4.40;3.10;;;;;;;16.11;100.00;100630.63;5059262;28;20197;-75
2023/07/01 03:18:10;;;;;;;5.10;3.00;;;;;;;16.12;100.00;100632.31;5054751;28;20247;-75
2023/07/01 03:20:36;;;;;;;3.53;2.90;;;;;;;16.14;100.00;100628.03;5070066;28;20721;-74
2023/07/01 03:23:02;;;;;;;5.67;2.90;;;;;;;16.10;100.00;100623.75;5052215;28;20201;-74
2023/07/01 03:25:28;;;;;;;4.97;3.40;;;;;;;16.10;100.00;100617.69;5055508;28;20212;-75
2023/07/01 03:27:54;;;;;;;3.33;2.90;;;;;;;16.06;100.00;100611.72;5065018;28;20217;-74
2023/07/01 03:30:27;;;;;;;3.80;3.17;;;;;;;16.09;100.00;100618.56;5055530;28;20194;-74
2023/07/01 03:32:53;;;;;;;3.77;3.03;;;;;;;16.09;100.00;100613.41;5065103;28;20205;-74
2023/07/01 03:35:18;;;;;;;3.57;2.77;;;;;;;16.11;100.00;100601.34;5050103;28;20217;-75
2023/07/01 03:37:45;;;;;;;4.97;3.00;;;;;;;16.12;100.00;100603.06;5058698;28;20205;-74
2023/07/01 03:40:11;;;;;;;4.57;3.00;;;;;;;16.10;100.00;100599.63;5054647;28;20309;-74
2023/07/01 03:42:37;;;;;;;4.97;2.70;;;;;;;16.10;100.00;100584.13;5056050;28;20198;-75
2023/07/01 03:45:07;;;;;;;5.20;3.43;;;;;;;16.13;100.00;100597.03;5055479;28;20208;-75
2023/07/01 03:47:41;;;;;;;5.63;2.83;;;;;;;16.10;100.00;100589.28;5056155;28;20218;-75
2023/07/01 03:50:10;;;;;;;4.47;3.40;;;;;;;16.11;100.00;100596.19;5056159;28;20192;-75
2023/07/01 03:52:39;;;;;;;5.43;3.27;;;;;;;16.13;100.00;100584.09;5059286;28;20177;-75
2023/07/01 03:55:06;;;;;;;3.90;3.33;;;;;;;16.12;100.00;100588.41;5054389;28;20221;-75
2023/07/01 03:57:33;;;;;;;6.50;3.20;;;;;;;16.16;100.00;100571.19;5049778;28;20219;-75
2023/07/01 03:59:59;;;;;;;4.63;3.47;;;;;;;16.18;100.00;100574.59;5057098;28;20201;-75
2023/07/01 04:02:25;;;;;;;6.37;3.43;;;;;;;16.17;100.00;100570.31;5051586;28;20733;-75
2023/07/01 04:04:51;;;;;;;4.90;3.27;;;;;;;16.15;100.00;100570.31;5032268;28;20190;-74
2023/07/01 04:07:17;;;;;;;5.23;4.07;;;;;;;16.13;100.00;100572.06;5054723;28;20772;-75
2023/07/01 04:09:43;;;;;;;4.00;3.57;;;;;;;16.17;100.00;100567.72;5055736;28;20196;-75
2023/07/01 04:12:09;;;;;;;6.00;3.50;;;;;;;16.17;100.00;100570.31;5052511;28;20255;-75
2023/07/01 04:14:34;;;;;;;5.07;3.57;;;;;;;16.18;100.00;100565.13;5059350;28;20198;-75
2023/07/01 04:17:00;;;;;;;4.57;3.63;;;;;;;16.19;100.00;100561.66;5053542;28;20212;-75
2023/07/01 04:19:25;;;;;;;5.57;4.03;;;;;;;16.19;100.00;100553.91;5057617;28;20678;-74
2023/07/01 04:21:51;;;;;;;6.33;3.53;;;;;;;16.21;100.00;100556.50;5055877;28;20432;-75
2023/07/01 04:24:16;;;;;;;4.10;3.23;;;;;;;16.24;100.00;100546.13;5059369;28;20280;-75
2023/07/01 04:26:43;;;;;;;4.37;3.50;;;;;;;16.26;100.00;100554.72;5064164;28;20220;-75
2023/07/01 04:29:09;;;;;;;3.33;3.03;;;;;;;16.29;100.00;100552.97;5057616;28;20217;-76
2023/07/01 04:31:35;;;;;;;3.90;3.47;;;;;;;16.29;100.00;100539.19;5057225;28;20190;-76
2023/07/01 04:34:00;;;;;;;5.27;3.60;;;;;;;16.28;100.00;100542.63;5058386;28;20208;-76
2023/07/01 04:36:25;;;;;;;3.57;3.07;;;;;;;16.28;100.00;100538.34;5061986;28;20197;-76
2023/07/01 04:38:51;;;;;;;3.97;3.00;;;;;;;16.29;100.00;100532.28;5061515;28;20203;-76
2023/07/01 04:41:17;;;;;;;5.07;3.27;;;;;;;16.34;100.00;100532.28;5057410;28;20217;-77
2023/07/01 04:43:42;;;;;;;4.30;3.47;;;;;;;16.33;100.00;100520.19;5063172;28;20535;-76
2023/07/01 04:46:08;;;;;;;4.57;3.63;;;;;;;16.34;100.00;100525.34;5056801;28;20333;-76
2023/07/01 04:48:34;;;;;;;6.47;3.90;;;;;;;16.39;100.00;100517.56;5062949;28;20618;-76
2023/07/01 04:50:59;;;;;;;5.70;3.13;;;;;;;16.40;100.00;100516.72;5059777;28;20194;-76
2023/07/01 04:53:24;;;;;;;4.70;3.17;;;;;;;16.42;100.00;100513.25;5055870;28;20557;-76
2023/07/01 04:55:50;;;;;;;3.90;3.30;;;;;;;16.43;100.00;100512.38;5065286;28;20208;-76
2023/07/01 04:58:15;;;;;;;4.17;3.67;;;;;;;16.43;100.00;100511.50;5061066;28;20209;-76
2023/07/01 05:00:42;;;;;;;4.00;3.43;;;;;;;16.43;100.00;100524.44;5060901;28;20788;-77
2023/07/01 05:03:07;;;;;;;4.17;3.30;;;;;;;16.44;100.00;100510.66;5057723;28;20201;-77
2023/07/01 05:05:33;;;;;;;6.00;3.53;;;;;;;16.45;100.00;100514.94;5064342;28;20209;-75
2023/07/01 05:07:58;;;;;;;5.57;3.23;;;;;;;16.43;100.00;100511.50;5028301;28;20320;-78
2023/07/01 05:10:24;;;;;;;5.30;3.20;;;;;;;16.46;100.00;100507.19;5045675;28;20275;-75
2023/07/01 05:12:53;;;;;;;6.83;3.70;;;;;;;16.45;100.00;100504.63;5059887;28;20653;-76
2023/07/01 05:15:18;;;;;;;5.33;3.37;;;;;;;16.48;100.00;100497.69;5059447;28;20190;-76
2023/07/01 05:17:44;;;;;;;5.63;3.70;;;;;;;16.51;100.00;100500.25;5065550;28;20229;-76
2023/07/01 05:20:10;;;;;;;4.87;3.27;;;;;;;16.54;100.00;100494.19;5057757;28;20205;-73
2023/07/01 05:22:36;;;;;;;5.27;3.10;;;;;;;16.52;100.00;100498.50;5057393;28;20368;-75
2023/07/01 05:25:03;;;;;;;5.73;3.67;;;;;;;16.53;100.00;100493.31;5074476;28;20205;-76
2023/07/01 05:27:29;;;;;;;5.37;3.40;;;;;;;16.55;100.00;100477.78;5057017;28;20210;-74
2023/07/01 05:29:58;;;;;;;7.73;3.43;;;;;;;16.59;100.00;100487.22;5061987;28;20272;-76
2023/07/01 05:32:23;;;;;;;4.13;3.63;;;;;;;16.56;100.00;100495.88;5059295;28;20190;-75
2023/07/01 05:34:49;;;;;;;7.27;3.60;;;;;;;16.58;100.00;100488.94;5063654;28;20189;-76
2023/07/01 05:37:15;;;;;;;7.30;3.67;;;;;;;16.62;100.00;100479.44;5073226;28;20297;-76
2023/07/01 05:39:41;;;;;;;4.70;3.47;;;;;;;16.63;100.00;100489.75;5055390;28;20196;-77
2023/07/01 05:42:06;;;;;;;3.90;3.23;;;;;;;16.62;100.00;100495.81;5061288;28;20247;-77
2023/07/01 05:44:32;;;;;;;5.27;3.37;;;;;;;16.66;100.00;100474.22;5062245;28;20689;-76
2023/07/01 05:46:58;;;;;;;4.60;3.40;;;;;;;16.68;100.00;100467.31;5056710;28;20299;-76
2023/07/01 05:49:24;;;;;;;5.30;3.50;;;;;;;16.71;100.00;100487.09;5059839;28;20186;-77
2023/07/01 05:51:49;;;;;;;5.63;3.33;;;;;;;16.71;100.00;100481.94;5059973;28;20681;-76
2023/07/01 05:54:15;;;;;;;3.57;3.20;;;;;;;16.73;100.00;100481.03;5061672;28;20636;-77
2023/07/01 05:56:40;;;;;;;4.93;3.40;;;;;;;16.78;100.00;100468.06;5060725;28;20227;-76
2023/07/01 05:59:06;;;;;;;4.63;3.40;;;;;;;16.81;100.00;100470.59;5062464;28;20228;-76
2023/07/01 06:01:31;;;;;;;4.70;3.30;;;;;;;16.85;100.00;100461.94;5061084;28;20225;-77
2023/07/01 06:03:57;;;;;;;5.67;3.27;;;;;;;16.88;100.00;100474.81;5057401;28;20192;-77
2023/07/01 06:06:22;;;;;;;6.80;3.30;;;;;;;16.89;100.00;100474.81;5058786;28;20221;-76
2023/07/01 06:08:48;;;;;;;5.37;3.50;;;;;;;16.92;100.00;100463.56;5065052;28;20196;-76
2023/07/01 06:11:14;;;;;;;3.63;3.17;;;;;;;16.95;100.00;100486.81;5044222;28;20199;-77
2023/07/01 06:13:47;;;;;;;5.23;3.93;;;;;;;16.96;100.00;100491.09;5063309;28;20659;-77
2023/07/01 06:16:14;;;;;;;5.10;3.33;;;;;;;16.96;100.00;100497.16;5059353;28;20338;-77
2023/07/01 06:18:40;;;;;;;5.60;3.53;;;;;;;16.92;100.00;100502.38;5046399;28;20188;-76
2023/07/01 06:21:06;;;;;;;4.20;3.17;;;;;;;16.89;100.00;100507.56;5066092;28;20261;-76
2023/07/01 06:23:37;;;;;;;5.87;3.50;;;;;;;16.84;100.00;100504.19;5056283;28;20308;-75
2023/07/01 06:26:04;;;;;;;5.33;3.90;;;;;;;16.86;100.00;100492.09;5077513;28;20296;-75
2023/07/01 06:28:29;;;;;;;5.50;3.80;;;;;;;16.81;100.00;100499.06;5036056;28;20345;-75
2023/07/01 06:30:55;;;;;;;6.07;4.00;;;;;;;16.86;100.00;100489.50;5057733;28;20227;-75
2023/07/01 06:33:20;;;;;;;4.90;4.37;;;;;;;16.84;100.00;100494.69;5058553;28;20195;-76
2023/07/01 06:35:46;;;;;;;5.03;3.63;;;;;;;16.87;100.00;100491.22;5058007;28;20257;-75
2023/07/01 06:38:12;;;;;;;5.67;4.10;;;;;;;16.84;100.00;100494.69;5059971;28;20218;-75
2023/07/01 06:40:37;;;;;;;6.20;3.80;;;;;;;16.87;100.00;100479.16;5065939;28;20252;-75
2023/07/01 06:43:03;;;;;;;5.40;4.20;;;;;;;16.92;100.00;100482.53;5064657;28;20204;-75
2023/07/01 06:45:29;;;;;;;6.13;4.30;;;;;;;16.96;100.00;100476.47;5057662;28;20198;-76
2023/07/01 06:47:55;;;;;;;4.40;4.00;;;;;;;16.98;100.00;100473.81;5064973;28;20220;-75
2023/07/01 06:50:20;;;;;;;5.90;4.00;;;;;;;17.01;100.00;100472.09;5052191;28;20185;-76
2023/07/01 06:52:46;;;;;;;6.13;3.80;;;;;;;17.04;100.00;100461.66;5063686;28;20195;-76
2023/07/01 06:55:15;;;;;;;3.93;3.63;;;;;;;17.09;100.00;100456.44;5058502;28;20194;-75
2023/07/01 06:57:41;;;;;;;4.40;4.00;;;;;;;17.11;100.00;100444.34;5065441;28;20197;-75
2023/07/01 07:00:12;;;;;;;4.43;3.83;;;;;;;17.14;100.00;100449.47;5061196;28;20686;-76
2023/07/01 07:02:38;;;;;;;3.53;3.23;;;;;;;17.09;100.00;100452.13;5062471;28;20221;-77
2023/07/01 07:05:04;;;;;;;4.33;3.50;;;;;;;17.11;100.00;100434.00;5051810;28;20199;-77
2023/07/01 07:07:30;;;;;;;5.03;3.83;;;;;;;17.13;100.00;100440.00;5056438;28;20201;-76
2023/07/01 07:09:55;;;;;;;5.43;4.27;;;;;;;17.13;100.00;100433.09;5063649;28;20966;-77
2023/07/01 07:12:21;;;;;;;5.47;3.87;;;;;;;17.15;100.00;100435.66;5062205;28;20208;-76
2023/07/01 07:14:46;;;;;;;5.10;4.30;;;;;;;17.14;100.00;100439.97;5039511;28;20669;-76
2023/07/01 07:17:12;;;;;;;4.27;3.87;;;;;;;17.14;100.00;100437.38;5055211;28;20256;-76
2023/07/01 07:19:37;;;;;;;7.07;4.53;;;;;;;17.07;100.00;100432.31;5056360;28;20224;-76
2023/07/01 07:22:04;;;;;;;7.10;3.87;;;;;;;17.10;100.00;100430.56;5054648;28;20212;-76
2023/07/01 07:24:29;;;;;;;4.70;3.43;;;;;;;17.21;100.00;100432.97;5069329;28;20198;-76
2023/07/01 07:27:00;;;;;;;4.00;3.70;;;;;;;17.27;100.00;100422.56;5062129;28;20201;-76
2023/07/01 07:29:29;;;;;;;5.50;3.53;;;;;;;17.29;100.00;100413.91;5057576;28;20236;-75
2023/07/01 07:31:55;;;;;;;5.17;3.27;;;;;;;17.30;100.00;100410.41;5065392;28;20276;-76
2023/07/01 07:34:21;;;;;;;4.30;3.90;;;;;;;17.38;100.00;100413.75;5061313;28;20208;-76
2023/07/01 07:36:47;;;;;;;7.17;3.50;;;;;;;17.44;100.00;100407.63;5063659;28;20265;-76
2023/07/01 07:39:13;;;;;;;3.97;3.50;;;;;;;17.40;100.00;100413.78;5059427;28;20192;-76
2023/07/01 07:41:42;;;;;;;4.07;3.53;;;;;;;17.40;100.00;100404.25;5059350;28;20698;-76
2023/07/01 07:44:08;;;;;;;6.77;3.70;;;;;;;17.43;100.00;100408.53;5050391;28;20193;-75
2023/07/01 07:46:35;;;;;;;5.13;3.67;;;;;;;17.58;100.00;100397.91;5057541;28;20783;-75
2023/07/01 07:49:00;;;;;;;3.77;3.33;;;;;;;17.57;100.00;100404.84;5053127;28;20651;-76
2023/07/01 07:51:26;;;;;;;6.13;4.03;;;;;;;17.66;100.00;100390.88;5075531;28;20192;-75
2023/07/01 07:53:52;;;;;;;5.10;3.40;;;;;;;17.58;100.00;100388.44;5058348;28;20185;-76
2023/07/01 07:56:17;;;;;;;5.57;3.70;;;;;;;17.65;100.00;100389.19;5041407;28;20202;-76
2023/07/01 07:58:44;;;;;;;4.53;3.73;;;;;;;17.72;100.00;100383.88;5068277;28;20224;-75
2023/07/01 08:01:10;;;;;;;5.47;3.60;;;;;;;17.65;100.00;100392.66;5065889;28;20219;-75
2023/07/01 08:03:35;;;;;;;6.57;4.20;;;;;;;17.50;100.00;100394.63;5061616;28;20193;-76
2023/07/01 08:06:01;;;;;;;4.43;3.30;;;;;;;17.47;100.00;100389.47;5065496;28;20579;-75
2023/07/01 08:08:26;;;;;;;6.43;3.57;;;;;;;17.49;100.00;100398.06;5066014;28;20221;-75
2023/07/01 08:10:53;;;;;;;6.20;3.80;;;;;;;17.47;100.00;100390.34;5064420;28;20193;-75
2023/07/01 08:13:19;;;;;;;6.13;4.23;;;;;;;17.44;100.00;100394.69;5064648;28;20271;-77
2023/07/01 08:15:44;;;;;;;5.63;3.97;;;;;;;17.46;100.00;100398.97;5068626;28;20698;-76
2023/07/01 08:18:09;;;;;;;4.03;3.63;;;;;;;17.41;100.00;100399.94;5063778;28;20220;-76
2023/07/01 08:20:35;;;;;;;5.30;4.03;;;;;;;17.37;100.00;100408.59;5066068;28;20198;-75
2023/07/01 08:23:01;;;;;;;7.50;4.10;;;;;;;17.12;100.00;100404.63;5063591;28;20197;-76
2023/07/01 08:25:26;;;;;;;4.10;3.70;;;;;;;16.91;100.00;100402.38;5064682;28;20194;-76
2023/07/01 08:27:53;;;;;;;4.20;3.57;;;;;;;16.93;100.00;100400.59;5079920;28;20690;-75
2023/07/01 08:30:19;;;;;;;5.33;4.47;;;;;;;16.86;100.00;100396.41;5064923;28;20508;-76
2023/07/01 08:32:44;;;;;;;8.07;4.13;;;;;;;16.85;100.00;100398.13;5068503;28;20196;-76
2023/07/01 08:35:10;;;;;;;4.57;4.10;;;;;;;16.83;100.00;100396.44;5066519;28;20229;-75
2023/07/01 08:37:35;;;;;;;4.63;4.13;;;;;;;16.75;100.00;100401.69;5059238;28;20311;-75
2023/07/01 08:40:01;;;;;;;8.53;4.80;;;;;;;16.70;100.00;100392.28;5062859;28;20201;-78
2023/07/01 08:42:37;;;;;;;5.33;4.30;;;;;;;16.67;100.00;100394.94;5051294;28;20308;-77
2023/07/01 08:45:03;;;;;;;7.20;5.10;;;;;;;16.59;100.00;100391.56;5063286;28;20682;-77
2023/07/01 08:47:29;;;;;;;6.83;4.67;;;;;;;16.58;100.00;100390.69;5066587;28;20240;-78
2023/07/01 08:50:01;;;;;;;6.17;5.07;;;;;;;16.50;100.00;100389.09;5060408;28;20188;-77
2023/07/01 08:52:32;;;;;;;5.57;5.00;;;;;;;16.52;100.00;100390.78;5064578;28;20206;-77
2023/07/01 08:54:58;;;;;;;5.50;4.87;;;;;;;16.42;100.00;100394.34;5083201;28;20196;-77
2023/07/01 08:57:23;;;;;;;7.73;5.10;;;;;;;16.44;100.00;100389.19;5065296;28;20209;-76
2023/07/01 08:59:49;;;;;;;6.03;5.43;;;;;;;16.39;100.00;100385.75;5063220;28;20568;-74
2023/07/01 09:02:15;;;;;;;8.40;5.83;;;;;;;16.41;100.00;100391.78;5060095;28;20623;-77
2023/07/01 09:04:41;;;;;;;6.43;5.63;;;;;;;16.29;100.00;100389.28;5069620;28;20196;-74
2023/07/01 09:07:08;;;;;;;9.43;5.90;;;;;;;16.24;100.00;100386.78;5063005;28;20305;-77
2023/07/01 09:09:34;;;;;;;6.67;5.87;;;;;;;16.29;100.00;100384.13;5057471;28;20321;-77
2023/07/01 09:11:59;;;;;;;6.00;5.37;;;;;;;16.27;100.00;100378.13;5061659;28;20200;-77
2023/07/01 09:14:25;;;;;;;5.87;5.17;;;;;;;16.15;100.00;100386.88;5065835;28;20189;-75
2023/07/01 09:16:50;;;;;;;7.57;5.80;;;;;;;16.28;100.00;100382.41;5068970;28;20845;-76
2023/07/01 09:19:22;;;;;;;8.57;6.10;;;;;;;16.14;100.00;100381.72;5064586;28;20205;-76
2023/07/01 09:21:47;;;;;;;6.33;5.73;;;;;;;16.18;100.00;100373.06;5062417;28;20201;-76
2023/07/01 09:24:13;;;;;;;6.93;6.13;;;;;;;16.25;100.00;100383.31;5079637;28;20662;-77
2023/07/01 09:26:39;;;;;;;9.20;6.30;;;;;;;16.26;100.00;100379.00;5061384;28;20210;-76
2023/07/01 09:29:14;;;;;;;8.97;6.40;;;;;;;16.24;100.00;100370.41;5060072;28;20189;-76
2023/07/01 09:31:48;;;;;;;8.17;7.10;;;;;;;16.18;100.00;100375.66;5063529;28;20216;-76
2023/07/01 09:34:15;;;;;;;8.27;7.33;;;;;;;16.18;100.00;100373.06;5066570;28;20251;-76
2023/07/01 09:36:40;;;;;;;7.60;6.70;;;;;;;16.22;100.00;100377.34;5062773;28;20230;-76
2023/07/01 09:39:06;;;;;;;9.80;6.70;;;;;;;16.24;100.00;100367.81;5062134;28;20611;-75
2023/07/01 09:41:31;;;;;;;7.17;6.43;;;;;;;16.35;100.00;100372.00;5065607;28;20683;-76
2023/07/01 09:43:58;;;;;;;7.70;6.60;;;;;;;16.26;100.00;100376.44;5063711;28;20243;-77
2023/07/01 09:46:40;;;;;;;9.13;6.93;;;;;;;16.09;100.00;100375.75;5082011;28;20228;-76
2023/07/01 09:49:07;;;;;;;7.60;5.97;;;;;;;16.23;100.00;100364.41;5051806;28;20683;-76
2023/07/01 09:51:33;;;;;;;7.47;6.77;;;;;;;16.22;100.00;100359.25;5065201;28;20196;-74
2023/07/01 09:53:58;;;;;;;7.77;6.73;;;;;;;16.16;100.00;100356.75;5053770;28;20766;-74
2023/07/01 09:56:24;;;;;;;11.27;6.80;;;;;;;16.30;100.00;100353.09;5051213;28;20208;-76
2023/07/01 09:58:50;;;;;;;9.63;6.27;;;;;;;16.22;100.00;100351.50;5058529;28;20203;-74
2023/07/01 10:01:18;;;;;;;7.87;6.60;;;;;;;16.26;100.00;100355.75;5061275;28;20271;-74
2023/07/01 10:03:44;;;;;;;9.53;6.20;;;;;;;16.28;100.00;100359.16;5048985;28;20185;-76
2023/07/01 10:06:11;;;;;;;6.87;6.10;;;;;;;16.31;100.00;100353.97;5051404;28;20196;-75
2023/07/01 10:08:37;;;;;;;7.10;6.40;;;;;;;16.33;100.00;100349.63;5067462;28;20229;-75
2023/07/01 10:11:21;;;;;;;7.50;6.77;;;;;;;16.25;100.00;100361.81;5066729;28;20197;-77
2023/07/01 10:13:51;;;;;;;13.30;6.43;;;;;;;16.43;100.00;100351.25;5047430;28;20192;-77
2023/07/01 10:16:17;;;;;;;7.30;6.37;;;;;;;16.46;100.00;100348.66;5046818;28;20212;-77
2023/07/01 10:18:43;;;;;;;8.67;6.67;;;;;;;16.48;100.00;100342.59;5052548;28;20291;-76
2023/07/01 10:21:27;;;;;;;8.33;6.77;;;;;;;16.54;100.00;100345.06;5081701;28;20312;-77
2023/07/01 10:23:55;;;;;;;8.07;6.27;;;;;;;16.67;100.00;100338.88;5049922;28;20201;-77
2023/07/01 10:26:34;;;;;;;9.47;7.37;;;;;;;16.47;100.00;100340.00;5057986;28;20681;-76
2023/07/01 10:29:28;;;;;;;6.97;6.13;;;;;;;16.75;100.00;100336.19;5037521;28;20204;-72
2023/07/01 10:32:09;;;;;;;9.50;7.60;;;;;;;16.69;100.00;100336.28;5058914;28;20185;-77
2023/07/01 10:34:52;;;;;;;7.93;7.00;;;;;;;16.70;100.00;100332.81;5068753;28;20201;-77
2023/07/01 10:37:18;;;;;;;11.63;7.17;;;;;;;16.80;100.00;100331.84;5043803;28;20216;-77
2023/07/01 10:39:44;;;;;;;7.37;6.37;;;;;;;16.73;100.00;100327.59;5045092;28;20185;-76
2023/07/01 10:42:34;;;;;;;8.17;6.73;;;;;;;16.74;100.00;100325.00;5056223;28;20648;-74
2023/07/01 10:45:11;;;;;;;7.87;6.53;;;;;;;16.70;100.00;100323.34;5054718;28;20201;-77
2023/07/01 10:47:44;;;;;;;8.60;6.83;;;;;;;16.71;100.00;100327.63;5051846;28;20220;-76
2023/07/01 10:50:17;;;;;;;8.37;7.40;;;;;;;16.62;100.00;100319.16;5054995;28;20196;-77
2023/07/01 10:52:55;;;;;;;10.67;7.33;;;;;;;16.72;100.00;100318.97;5060331;28;20189;-78
2023/07/01 10:55:36;;;;;;;9.87;7.70;;;;;;;16.67;100.00;100320.78;5040396;28;20324;-78
2023/07/01 10:58:26;;;;;;;8.80;7.90;;;;;;;16.67;100.00;100317.34;5061620;28;20264;-77
2023/07/01 11:00:58;;;;;;;11.37;7.60;;;;;;;16.76;100.00;100323.25;5048919;28;20217;-77
2023/07/01 11:03:32;;;;;;;9.23;7.77;;;;;;;16.73;100.00;100312.09;5055734;28;20666;-76
2023/07/01 11:06:00;;;;;;;11.17;8.27;;;;;;;16.65;100.00;100304.44;5049554;28;20198;-77
2023/07/01 11:08:26;;;;;;;10.30;8.00;;;;;;;16.76;100.00;100312.88;5053316;28;20213;-78
2023/07/01 11:10:52;;;;;;;9.37;7.50;;;;;;;16.79;100.00;100306.81;5059852;28;20193;-78
2023/07/01 11:13:18;;;;;;;9.00;8.03;;;;;;;16.78;100.00;100305.97;5061568;28;20216;-79
2023/07/01 11:16:04;;;;;;;10.30;8.47;;;;;;;16.77;100.00;100309.44;5059820;28;20255;-76
2023/07/01 11:18:43;;;;;;;10.70;8.17;;;;;;;16.75;100.00;100302.56;5061710;28;20236;-78